sensor_id;sensor_type;location;lat;lon;timestamp;P1;durP1;ratioP1;P2;durP2;ratioP2
72478;SDS011;60658;52.246;5.258;2022-09-09T00:00:45;4.13;;;1.70;;
72478;SDS011;60658;52.246;5.258;2022-09-09T00:01:49;3.67;;;1.40;;
72478;SDS011;60658;52.246;5.258;2022-09-09T00:02:54;4.47;;;1.25;;
72478;SDS011;60658;52.246;5.258;2022-09-09T00:03:57;2.10;;;1.20;;
72478;SDS011;60658;52.246;5.258;2022-09-09T00:05:00;3.08;;;1.25;;
72478;SDS011;60658;52.246;5.258;2022-09-09T00:06:03;2.72;;;1.25;;
72478;SDS011;60658;52.246;5.258;2022-09-09T00:07:10;3.78;;;1.40;;
72478;SDS011;60658;52.246;5.258;2022-09-09T00:08:15;2.92;;;1.30;;
72478;SDS011;60658;52.246;5.258;2022-09-09T00:09:19;3.85;;;1.50;;
72478;SDS011;60658;52.246;5.258;2022-09-09T00:10:22;2.17;;;1.23;;
72478;SDS011;60658;52.246;5.258;2022-09-09T00:11:28;2.97;;;1.13;;
72478;SDS011;60658;52.246;5.258;2022-09-09T00:12:32;4.63;;;1.48;;
72478;SDS011;60658;52.246;5.258;2022-09-09T00:13:34;3.70;;;1.30;;
72478;SDS011;60658;52.246;5.258;2022-09-09T00:14:38;4.10;;;1.45;;
72478;SDS011;60658;52.246;5.258;2022-09-09T00:15:45;5.00;;;1.30;;
72478;SDS011;60658;52.246;5.258;2022-09-09T00:16:49;3.38;;;1.40;;
72478;SDS011;60658;52.246;5.258;2022-09-09T00:17:51;4.75;;;1.60;;
72478;SDS011;60658;52.246;5.258;2022-09-09T00:18:55;3.22;;;1.48;;
72478;SDS011;60658;52.246;5.258;2022-09-09T00:19:59;3.22;;;1.55;;
72478;SDS011;60658;52.246;5.258;2022-09-09T00:21:04;3.88;;;1.55;;
72478;SDS011;60658;52.246;5.258;2022-09-09T00:22:08;3.53;;;1.55;;
72478;SDS011;60658;52.246;5.258;2022-09-09T00:23:14;2.97;;;1.40;;
72478;SDS011;60658;52.246;5.258;2022-09-09T00:24:17;3.45;;;1.50;;
72478;SDS011;60658;52.246;5.258;2022-09-09T00:25:22;3.17;;;1.30;;
72478;SDS011;60658;52.246;5.258;2022-09-09T00:27:25;3.08;;;1.60;;
72478;SDS011;60658;52.246;5.258;2022-09-09T00:28:27;3.00;;;1.42;;
72478;SDS011;60658;52.246;5.258;2022-09-09T00:29:28;3.75;;;1.42;;
72478;SDS011;60658;52.246;5.258;2022-09-09T00:30:32;4.88;;;1.50;;
72478;SDS011;60658;52.246;5.258;2022-09-09T00:31:35;3.97;;;1.75;;
72478;SDS011;60658;52.246;5.258;2022-09-09T00:32:36;3.03;;;1.50;;
72478;SDS011;60658;52.246;5.258;2022-09-09T00:33:37;4.25;;;1.70;;
72478;SDS011;60658;52.246;5.258;2022-09-09T00:34:46;3.53;;;1.80;;
72478;SDS011;60658;52.246;5.258;2022-09-09T00:35:47;4.53;;;1.70;;
72478;SDS011;60658;52.246;5.258;2022-09-09T00:36:49;3.35;;;1.73;;
72478;SDS011;60658;52.246;5.258;2022-09-09T00:37:52;4.03;;;1.55;;
72478;SDS011;60658;52.246;5.258;2022-09-09T00:38:55;3.88;;;1.95;;
72478;SDS011;60658;52.246;5.258;2022-09-09T00:39:57;4.45;;;2.53;;
72478;SDS011;60658;52.246;5.258;2022-09-09T00:41:02;3.72;;;1.95;;
72478;SDS011;60658;52.246;5.258;2022-09-09T00:43:08;4.80;;;1.90;;
72478;SDS011;60658;52.246;5.258;2022-09-09T00:44:14;4.25;;;1.95;;
72478;SDS011;60658;52.246;5.258;2022-09-09T00:45:26;5.15;;;2.10;;
72478;SDS011;60658;52.246;5.258;2022-09-09T00:46:44;4.07;;;1.90;;
72478;SDS011;60658;52.246;5.258;2022-09-09T00:47:49;5.70;;;2.20;;
72478;SDS011;60658;52.246;5.258;2022-09-09T00:48:54;5.50;;;2.20;;
72478;SDS011;60658;52.246;5.258;2022-09-09T00:49:59;4.07;;;2.05;;
72478;SDS011;60658;52.246;5.258;2022-09-09T00:51:01;4.47;;;2.40;;
72478;SDS011;60658;52.246;5.258;2022-09-09T00:52:08;4.43;;;2.20;;
72478;SDS011;60658;52.246;5.258;2022-09-09T00:53:17;5.60;;;2.58;;
72478;SDS011;60658;52.246;5.258;2022-09-09T00:54:24;3.55;;;2.30;;
72478;SDS011;60658;52.246;5.258;2022-09-09T00:55:30;5.43;;;2.47;;
72478;SDS011;60658;52.246;5.258;2022-09-09T00:56:34;4.78;;;2.13;;
72478;SDS011;60658;52.246;5.258;2022-09-09T00:57:37;6.07;;;2.53;;
72478;SDS011;60658;52.246;5.258;2022-09-09T00:58:38;4.47;;;2.25;;
72478;SDS011;60658;52.246;5.258;2022-09-09T00:59:40;4.38;;;2.40;;
72478;SDS011;60658;52.246;5.258;2022-09-09T01:00:46;3.90;;;2.28;;
72478;SDS011;60658;52.246;5.258;2022-09-09T01:01:48;5.05;;;2.80;;
72478;SDS011;60658;52.246;5.258;2022-09-09T01:02:52;6.38;;;2.63;;
72478;SDS011;60658;52.246;5.258;2022-09-09T01:03:54;4.68;;;2.67;;
72478;SDS011;60658;52.246;5.258;2022-09-09T01:04:56;6.28;;;2.78;;
72478;SDS011;60658;52.246;5.258;2022-09-09T01:06:01;4.43;;;2.25;;
72478;SDS011;60658;52.246;5.258;2022-09-09T01:07:03;6.05;;;2.30;;
72478;SDS011;60658;52.246;5.258;2022-09-09T01:08:09;5.43;;;2.22;;
72478;SDS011;60658;52.246;5.258;2022-09-09T01:09:13;4.80;;;2.40;;
72478;SDS011;60658;52.246;5.258;2022-09-09T01:10:20;4.35;;;2.50;;
72478;SDS011;60658;52.246;5.258;2022-09-09T01:11:25;12.52;;;2.60;;
72478;SDS011;60658;52.246;5.258;2022-09-09T01:12:29;7.13;;;2.80;;
72478;SDS011;60658;52.246;5.258;2022-09-09T01:13:34;5.20;;;2.67;;
72478;SDS011;60658;52.246;5.258;2022-09-09T01:14:39;6.75;;;2.55;;
72478;SDS011;60658;52.246;5.258;2022-09-09T01:16:40;5.43;;;3.08;;
72478;SDS011;60658;52.246;5.258;2022-09-09T01:17:48;6.68;;;2.60;;
72478;SDS011;60658;52.246;5.258;2022-09-09T01:18:51;6.18;;;2.72;;
72478;SDS011;60658;52.246;5.258;2022-09-09T01:19:55;5.57;;;2.40;;
72478;SDS011;60658;52.246;5.258;2022-09-09T01:21:00;5.57;;;2.80;;
72478;SDS011;60658;52.246;5.258;2022-09-09T01:22:03;5.22;;;2.88;;
72478;SDS011;60658;52.246;5.258;2022-09-09T01:23:14;6.22;;;2.88;;
72478;SDS011;60658;52.246;5.258;2022-09-09T01:24:21;5.53;;;3.30;;
72478;SDS011;60658;52.246;5.258;2022-09-09T01:25:25;4.68;;;2.78;;
72478;SDS011;60658;52.246;5.258;2022-09-09T01:26:29;4.25;;;2.58;;
72478;SDS011;60658;52.246;5.258;2022-09-09T01:27:30;6.97;;;3.08;;
72478;SDS011;60658;52.246;5.258;2022-09-09T01:28:31;7.47;;;2.83;;
72478;SDS011;60658;52.246;5.258;2022-09-09T01:29:32;7.50;;;2.88;;
72478;SDS011;60658;52.246;5.258;2022-09-09T01:30:33;5.40;;;2.80;;
72478;SDS011;60658;52.246;5.258;2022-09-09T01:31:36;5.97;;;2.85;;
72478;SDS011;60658;52.246;5.258;2022-09-09T01:32:39;9.25;;;3.30;;
72478;SDS011;60658;52.246;5.258;2022-09-09T01:33:40;5.20;;;2.80;;
72478;SDS011;60658;52.246;5.258;2022-09-09T01:34:41;6.40;;;2.90;;
72478;SDS011;60658;52.246;5.258;2022-09-09T01:35:43;6.78;;;2.60;;
72478;SDS011;60658;52.246;5.258;2022-09-09T01:36:47;5.07;;;2.92;;
72478;SDS011;60658;52.246;5.258;2022-09-09T01:37:50;6.20;;;3.08;;
72478;SDS011;60658;52.246;5.258;2022-09-09T01:38:50;6.78;;;3.50;;
72478;SDS011;60658;52.246;5.258;2022-09-09T01:39:51;6.82;;;3.30;;
72478;SDS011;60658;52.246;5.258;2022-09-09T01:40:52;6.45;;;3.15;;
72478;SDS011;60658;52.246;5.258;2022-09-09T01:41:54;7.03;;;3.13;;
72478;SDS011;60658;52.246;5.258;2022-09-09T01:42:55;6.22;;;3.05;;
72478;SDS011;60658;52.246;5.258;2022-09-09T01:43:56;6.68;;;3.22;;
72478;SDS011;60658;52.246;5.258;2022-09-09T01:44:57;6.47;;;3.17;;
72478;SDS011;60658;52.246;5.258;2022-09-09T01:45:58;6.85;;;3.00;;
72478;SDS011;60658;52.246;5.258;2022-09-09T01:46:59;5.07;;;3.25;;
72478;SDS011;60658;52.246;5.258;2022-09-09T01:48:00;6.13;;;3.05;;
72478;SDS011;60658;52.246;5.258;2022-09-09T01:49:00;7.18;;;3.38;;
72478;SDS011;60658;52.246;5.258;2022-09-09T01:50:02;6.13;;;3.13;;
72478;SDS011;60658;52.246;5.258;2022-09-09T01:51:03;6.22;;;3.17;;
72478;SDS011;60658;52.246;5.258;2022-09-09T01:52:04;7.88;;;3.38;;
72478;SDS011;60658;52.246;5.258;2022-09-09T01:53:04;7.22;;;3.63;;
72478;SDS011;60658;52.246;5.258;2022-09-09T01:54:05;7.88;;;3.22;;
72478;SDS011;60658;52.246;5.258;2022-09-09T01:55:07;9.27;;;4.32;;
72478;SDS011;60658;52.246;5.258;2022-09-09T01:56:11;5.72;;;3.45;;
72478;SDS011;60658;52.246;5.258;2022-09-09T01:57:17;8.38;;;4.15;;
72478;SDS011;60658;52.246;5.258;2022-09-09T01:58:22;9.27;;;4.00;;
72478;SDS011;60658;52.246;5.258;2022-09-09T01:59:27;5.40;;;4.00;;
72478;SDS011;60658;52.246;5.258;2022-09-09T02:00:31;8.30;;;3.70;;
72478;SDS011;60658;52.246;5.258;2022-09-09T02:01:35;7.25;;;3.78;;
72478;SDS011;60658;52.246;5.258;2022-09-09T02:02:42;6.95;;;4.43;;
72478;SDS011;60658;52.246;5.258;2022-09-09T02:03:47;7.95;;;4.07;;
72478;SDS011;60658;52.246;5.258;2022-09-09T02:04:50;7.18;;;4.30;;
72478;SDS011;60658;52.246;5.258;2022-09-09T02:05:52;8.23;;;3.67;;
72478;SDS011;60658;52.246;5.258;2022-09-09T02:06:56;6.93;;;3.95;;
72478;SDS011;60658;52.246;5.258;2022-09-09T02:07:59;6.00;;;3.53;;
72478;SDS011;60658;52.246;5.258;2022-09-09T02:09:01;5.50;;;3.80;;
72478;SDS011;60658;52.246;5.258;2022-09-09T02:10:05;6.43;;;3.80;;
72478;SDS011;60658;52.246;5.258;2022-09-09T02:11:10;6.70;;;3.72;;
72478;SDS011;60658;52.246;5.258;2022-09-09T02:12:13;7.50;;;4.55;;
72478;SDS011;60658;52.246;5.258;2022-09-09T02:13:17;7.40;;;4.20;;
72478;SDS011;60658;52.246;5.258;2022-09-09T02:14:20;8.38;;;4.35;;
72478;SDS011;60658;52.246;5.258;2022-09-09T02:15:23;9.10;;;4.20;;
72478;SDS011;60658;52.246;5.258;2022-09-09T02:16:26;9.38;;;4.57;;
72478;SDS011;60658;52.246;5.258;2022-09-09T02:17:28;8.82;;;4.35;;
72478;SDS011;60658;52.246;5.258;2022-09-09T02:18:30;6.97;;;4.07;;
72478;SDS011;60658;52.246;5.258;2022-09-09T02:19:35;7.13;;;4.18;;
72478;SDS011;60658;52.246;5.258;2022-09-09T02:20:37;7.60;;;3.97;;
72478;SDS011;60658;52.246;5.258;2022-09-09T02:21:38;6.13;;;4.15;;
72478;SDS011;60658;52.246;5.258;2022-09-09T02:22:41;7.88;;;4.18;;
72478;SDS011;60658;52.246;5.258;2022-09-09T02:23:42;6.68;;;4.15;;
72478;SDS011;60658;52.246;5.258;2022-09-09T02:24:43;7.95;;;4.00;;
72478;SDS011;60658;52.246;5.258;2022-09-09T02:25:44;7.75;;;4.28;;
72478;SDS011;60658;52.246;5.258;2022-09-09T02:26:46;7.45;;;4.75;;
72478;SDS011;60658;52.246;5.258;2022-09-09T02:27:48;9.80;;;4.57;;
72478;SDS011;60658;52.246;5.258;2022-09-09T02:28:53;7.00;;;4.50;;
72478;SDS011;60658;52.246;5.258;2022-09-09T02:29:54;8.35;;;4.75;;
72478;SDS011;60658;52.246;5.258;2022-09-09T02:30:56;6.50;;;4.53;;
72478;SDS011;60658;52.246;5.258;2022-09-09T02:31:57;6.55;;;4.60;;
72478;SDS011;60658;52.246;5.258;2022-09-09T02:32:59;9.02;;;4.32;;
72478;SDS011;60658;52.246;5.258;2022-09-09T02:34:01;6.70;;;4.53;;
72478;SDS011;60658;52.246;5.258;2022-09-09T02:35:05;8.10;;;4.85;;
72478;SDS011;60658;52.246;5.258;2022-09-09T02:36:07;7.85;;;4.13;;
72478;SDS011;60658;52.246;5.258;2022-09-09T02:37:10;8.85;;;4.53;;
72478;SDS011;60658;52.246;5.258;2022-09-09T02:38:12;7.22;;;4.38;;
72478;SDS011;60658;52.246;5.258;2022-09-09T02:39:13;8.13;;;4.30;;
72478;SDS011;60658;52.246;5.258;2022-09-09T02:40:14;7.53;;;4.53;;
72478;SDS011;60658;52.246;5.258;2022-09-09T02:41:15;9.27;;;5.15;;
72478;SDS011;60658;52.246;5.258;2022-09-09T02:42:15;9.90;;;4.80;;
72478;SDS011;60658;52.246;5.258;2022-09-09T02:43:16;10.57;;;4.70;;
72478;SDS011;60658;52.246;5.258;2022-09-09T02:44:18;7.43;;;4.32;;
72478;SDS011;60658;52.246;5.258;2022-09-09T02:45:20;7.25;;;4.45;;
72478;SDS011;60658;52.246;5.258;2022-09-09T02:47:29;9.48;;;4.68;;
72478;SDS011;60658;52.246;5.258;2022-09-09T02:49:36;10.27;;;4.95;;
72478;SDS011;60658;52.246;5.258;2022-09-09T02:50:39;9.07;;;4.43;;
72478;SDS011;60658;52.246;5.258;2022-09-09T02:51:45;8.15;;;4.40;;
72478;SDS011;60658;52.246;5.258;2022-09-09T02:52:52;7.53;;;4.20;;
72478;SDS011;60658;52.246;5.258;2022-09-09T02:53:57;12.68;;;5.10;;
72478;SDS011;60658;52.246;5.258;2022-09-09T02:55:02;9.50;;;4.57;;
72478;SDS011;60658;52.246;5.258;2022-09-09T02:56:05;7.13;;;4.30;;
72478;SDS011;60658;52.246;5.258;2022-09-09T02:57:10;8.65;;;4.97;;
72478;SDS011;60658;52.246;5.258;2022-09-09T02:58:12;8.85;;;4.78;;
72478;SDS011;60658;52.246;5.258;2022-09-09T02:59:13;8.38;;;4.90;;
72478;SDS011;60658;52.246;5.258;2022-09-09T03:00:15;8.15;;;4.15;;
72478;SDS011;60658;52.246;5.258;2022-09-09T03:01:15;9.57;;;5.10;;
72478;SDS011;60658;52.246;5.258;2022-09-09T03:02:16;9.15;;;4.80;;
72478;SDS011;60658;52.246;5.258;2022-09-09T03:03:17;11.20;;;4.60;;
72478;SDS011;60658;52.246;5.258;2022-09-09T03:04:18;7.28;;;4.70;;
72478;SDS011;60658;52.246;5.258;2022-09-09T03:05:18;8.65;;;4.55;;
72478;SDS011;60658;52.246;5.258;2022-09-09T03:06:19;10.10;;;4.70;;
72478;SDS011;60658;52.246;5.258;2022-09-09T03:07:19;7.40;;;4.50;;
72478;SDS011;60658;52.246;5.258;2022-09-09T03:08:20;9.63;;;4.90;;
72478;SDS011;60658;52.246;5.258;2022-09-09T03:09:21;7.55;;;4.43;;
72478;SDS011;60658;52.246;5.258;2022-09-09T03:10:21;8.35;;;4.70;;
72478;SDS011;60658;52.246;5.258;2022-09-09T03:11:22;11.23;;;4.90;;
72478;SDS011;60658;52.246;5.258;2022-09-09T03:12:23;8.93;;;4.72;;
72478;SDS011;60658;52.246;5.258;2022-09-09T03:13:23;7.68;;;4.38;;
72478;SDS011;60658;52.246;5.258;2022-09-09T03:14:24;9.23;;;4.65;;
72478;SDS011;60658;52.246;5.258;2022-09-09T03:15:26;7.32;;;4.70;;
72478;SDS011;60658;52.246;5.258;2022-09-09T03:16:27;8.23;;;4.20;;
72478;SDS011;60658;52.246;5.258;2022-09-09T03:17:28;8.30;;;4.40;;
72478;SDS011;60658;52.246;5.258;2022-09-09T03:18:28;8.10;;;4.28;;
72478;SDS011;60658;52.246;5.258;2022-09-09T03:19:29;7.82;;;5.20;;
72478;SDS011;60658;52.246;5.258;2022-09-09T03:20:30;8.02;;;4.82;;
72478;SDS011;60658;52.246;5.258;2022-09-09T03:21:30;7.72;;;4.22;;
72478;SDS011;60658;52.246;5.258;2022-09-09T03:22:31;7.88;;;4.50;;
72478;SDS011;60658;52.246;5.258;2022-09-09T03:23:31;7.13;;;4.57;;
72478;SDS011;60658;52.246;5.258;2022-09-09T03:24:32;7.97;;;4.47;;
72478;SDS011;60658;52.246;5.258;2022-09-09T03:25:33;8.02;;;4.25;;
72478;SDS011;60658;52.246;5.258;2022-09-09T03:26:33;9.68;;;4.93;;
72478;SDS011;60658;52.246;5.258;2022-09-09T03:27:34;10.57;;;4.63;;
72478;SDS011;60658;52.246;5.258;2022-09-09T03:28:35;10.13;;;5.00;;
72478;SDS011;60658;52.246;5.258;2022-09-09T03:29:35;9.98;;;4.80;;
72478;SDS011;60658;52.246;5.258;2022-09-09T03:30:37;8.57;;;4.65;;
72478;SDS011;60658;52.246;5.258;2022-09-09T03:31:38;6.75;;;4.07;;
72478;SDS011;60658;52.246;5.258;2022-09-09T03:32:39;6.82;;;4.28;;
72478;SDS011;60658;52.246;5.258;2022-09-09T03:33:39;8.25;;;4.47;;
72478;SDS011;60658;52.246;5.258;2022-09-09T03:34:40;13.25;;;5.10;;
72478;SDS011;60658;52.246;5.258;2022-09-09T03:35:44;8.90;;;4.57;;
72478;SDS011;60658;52.246;5.258;2022-09-09T03:36:45;9.52;;;5.20;;
72478;SDS011;60658;52.246;5.258;2022-09-09T03:37:45;8.10;;;4.45;;
72478;SDS011;60658;52.246;5.258;2022-09-09T03:38:46;8.35;;;4.40;;
72478;SDS011;60658;52.246;5.258;2022-09-09T03:39:46;7.13;;;4.40;;
72478;SDS011;60658;52.246;5.258;2022-09-09T03:40:50;7.20;;;4.03;;
72478;SDS011;60658;52.246;5.258;2022-09-09T03:41:51;9.15;;;4.40;;
72478;SDS011;60658;52.246;5.258;2022-09-09T03:42:52;8.45;;;4.90;;
72478;SDS011;60658;52.246;5.258;2022-09-09T03:43:52;6.05;;;4.00;;
72478;SDS011;60658;52.246;5.258;2022-09-09T03:44:53;9.80;;;4.90;;
72478;SDS011;60658;52.246;5.258;2022-09-09T03:45:55;7.38;;;3.95;;
72478;SDS011;60658;52.246;5.258;2022-09-09T03:46:56;7.43;;;3.85;;
72478;SDS011;60658;52.246;5.258;2022-09-09T03:47:57;6.63;;;3.90;;
72478;SDS011;60658;52.246;5.258;2022-09-09T03:48:57;7.07;;;4.10;;
72478;SDS011;60658;52.246;5.258;2022-09-09T03:49:58;9.18;;;4.57;;
72478;SDS011;60658;52.246;5.258;2022-09-09T03:50:59;9.82;;;4.50;;
72478;SDS011;60658;52.246;5.258;2022-09-09T03:51:59;7.72;;;4.35;;
72478;SDS011;60658;52.246;5.258;2022-09-09T03:53:00;8.25;;;4.55;;
72478;SDS011;60658;52.246;5.258;2022-09-09T03:54:00;7.78;;;4.28;;
72478;SDS011;60658;52.246;5.258;2022-09-09T03:55:01;7.95;;;4.57;;
72478;SDS011;60658;52.246;5.258;2022-09-09T03:56:02;7.47;;;4.15;;
72478;SDS011;60658;52.246;5.258;2022-09-09T03:57:03;9.95;;;4.90;;
72478;SDS011;60658;52.246;5.258;2022-09-09T03:58:03;10.25;;;4.65;;
72478;SDS011;60658;52.246;5.258;2022-09-09T03:59:04;7.55;;;4.72;;
72478;SDS011;60658;52.246;5.258;2022-09-09T04:00:05;10.35;;;4.72;;
72478;SDS011;60658;52.246;5.258;2022-09-09T04:01:09;8.40;;;4.60;;
72478;SDS011;60658;52.246;5.258;2022-09-09T04:02:09;7.25;;;4.40;;
72478;SDS011;60658;52.246;5.258;2022-09-09T04:03:10;6.65;;;4.50;;
72478;SDS011;60658;52.246;5.258;2022-09-09T04:04:11;9.13;;;4.40;;
72478;SDS011;60658;52.246;5.258;2022-09-09T04:05:12;7.20;;;4.72;;
72478;SDS011;60658;52.246;5.258;2022-09-09T04:06:13;7.95;;;4.53;;
72478;SDS011;60658;52.246;5.258;2022-09-09T04:07:13;8.52;;;4.80;;
72478;SDS011;60658;52.246;5.258;2022-09-09T04:08:14;8.98;;;4.45;;
72478;SDS011;60658;52.246;5.258;2022-09-09T04:09:14;11.63;;;4.30;;
72478;SDS011;60658;52.246;5.258;2022-09-09T04:10:15;7.55;;;4.30;;
72478;SDS011;60658;52.246;5.258;2022-09-09T04:11:16;8.27;;;4.25;;
72478;SDS011;60658;52.246;5.258;2022-09-09T04:12:16;10.70;;;4.53;;
72478;SDS011;60658;52.246;5.258;2022-09-09T04:13:17;6.25;;;4.20;;
72478;SDS011;60658;52.246;5.258;2022-09-09T04:14:18;7.43;;;4.22;;
72478;SDS011;60658;52.246;5.258;2022-09-09T04:15:19;8.40;;;3.70;;
72478;SDS011;60658;52.246;5.258;2022-09-09T04:16:21;7.82;;;3.85;;
72478;SDS011;60658;52.246;5.258;2022-09-09T04:17:21;8.70;;;4.57;;
72478;SDS011;60658;52.246;5.258;2022-09-09T04:18:22;8.55;;;4.47;;
72478;SDS011;60658;52.246;5.258;2022-09-09T04:19:23;7.07;;;4.40;;
72478;SDS011;60658;52.246;5.258;2022-09-09T04:20:24;9.05;;;4.60;;
72478;SDS011;60658;52.246;5.258;2022-09-09T04:21:25;9.73;;;4.80;;
72478;SDS011;60658;52.246;5.258;2022-09-09T04:22:25;7.40;;;4.15;;
72478;SDS011;60658;52.246;5.258;2022-09-09T04:23:26;8.57;;;4.43;;
72478;SDS011;60658;52.246;5.258;2022-09-09T04:24:27;7.85;;;4.63;;
72478;SDS011;60658;52.246;5.258;2022-09-09T04:25:28;9.60;;;4.25;;
72478;SDS011;60658;52.246;5.258;2022-09-09T04:26:28;8.25;;;4.22;;
72478;SDS011;60658;52.246;5.258;2022-09-09T04:27:29;8.70;;;4.40;;
72478;SDS011;60658;52.246;5.258;2022-09-09T04:28:30;8.77;;;4.45;;
72478;SDS011;60658;52.246;5.258;2022-09-09T04:29:31;7.20;;;4.22;;
72478;SDS011;60658;52.246;5.258;2022-09-09T04:30:31;8.98;;;4.50;;
72478;SDS011;60658;52.246;5.258;2022-09-09T04:31:33;9.68;;;4.97;;
72478;SDS011;60658;52.246;5.258;2022-09-09T04:32:34;8.25;;;4.85;;
72478;SDS011;60658;52.246;5.258;2022-09-09T04:33:35;8.38;;;4.15;;
72478;SDS011;60658;52.246;5.258;2022-09-09T04:34:35;8.18;;;4.18;;
72478;SDS011;60658;52.246;5.258;2022-09-09T04:35:36;8.63;;;4.25;;
72478;SDS011;60658;52.246;5.258;2022-09-09T04:36:37;7.95;;;4.20;;
72478;SDS011;60658;52.246;5.258;2022-09-09T04:37:38;6.95;;;4.22;;
72478;SDS011;60658;52.246;5.258;2022-09-09T04:38:38;9.38;;;4.07;;
72478;SDS011;60658;52.246;5.258;2022-09-09T04:39:39;7.00;;;4.30;;
72478;SDS011;60658;52.246;5.258;2022-09-09T04:40:41;7.65;;;4.50;;
72478;SDS011;60658;52.246;5.258;2022-09-09T04:41:42;6.95;;;4.10;;
72478;SDS011;60658;52.246;5.258;2022-09-09T04:42:42;7.78;;;4.35;;
72478;SDS011;60658;52.246;5.258;2022-09-09T04:43:43;5.88;;;4.28;;
72478;SDS011;60658;52.246;5.258;2022-09-09T04:44:44;6.75;;;3.97;;
72478;SDS011;60658;52.246;5.258;2022-09-09T04:45:46;9.23;;;4.90;;
72478;SDS011;60658;52.246;5.258;2022-09-09T04:46:48;8.27;;;3.90;;
72478;SDS011;60658;52.246;5.258;2022-09-09T04:47:49;8.13;;;4.22;;
72478;SDS011;60658;52.246;5.258;2022-09-09T04:48:50;7.47;;;4.20;;
72478;SDS011;60658;52.246;5.258;2022-09-09T04:49:50;6.70;;;4.10;;
72478;SDS011;60658;52.246;5.258;2022-09-09T04:50:54;7.72;;;3.97;;
72478;SDS011;60658;52.246;5.258;2022-09-09T04:51:55;7.93;;;3.90;;
72478;SDS011;60658;52.246;5.258;2022-09-09T04:52:56;8.52;;;3.78;;
72478;SDS011;60658;52.246;5.258;2022-09-09T04:53:56;8.18;;;4.03;;
72478;SDS011;60658;52.246;5.258;2022-09-09T04:54:57;7.13;;;3.78;;
72478;SDS011;60658;52.246;5.258;2022-09-09T04:56:01;7.38;;;3.38;;
72478;SDS011;60658;52.246;5.258;2022-09-09T04:57:01;7.75;;;3.85;;
72478;SDS011;60658;52.246;5.258;2022-09-09T04:58:03;6.72;;;3.47;;
72478;SDS011;60658;52.246;5.258;2022-09-09T04:59:03;5.68;;;3.58;;
72478;SDS011;60658;52.246;5.258;2022-09-09T05:00:04;10.02;;;3.83;;
72478;SDS011;60658;52.246;5.258;2022-09-09T05:01:06;8.93;;;3.92;;
72478;SDS011;60658;52.246;5.258;2022-09-09T05:02:08;5.70;;;3.47;;
72478;SDS011;60658;52.246;5.258;2022-09-09T05:03:08;7.18;;;4.00;;
72478;SDS011;60658;52.246;5.258;2022-09-09T05:04:09;6.88;;;3.60;;
72478;SDS011;60658;52.246;5.258;2022-09-09T05:05:10;6.13;;;3.40;;
72478;SDS011;60658;52.246;5.258;2022-09-09T05:06:11;8.80;;;3.47;;
72478;SDS011;60658;52.246;5.258;2022-09-09T05:07:11;7.70;;;3.60;;
72478;SDS011;60658;52.246;5.258;2022-09-09T05:08:12;7.65;;;3.83;;
72478;SDS011;60658;52.246;5.258;2022-09-09T05:09:12;7.03;;;3.40;;
72478;SDS011;60658;52.246;5.258;2022-09-09T05:10:13;6.72;;;3.22;;
72478;SDS011;60658;52.246;5.258;2022-09-09T05:11:14;6.20;;;3.40;;
72478;SDS011;60658;52.246;5.258;2022-09-09T05:12:15;9.05;;;3.95;;
72478;SDS011;60658;52.246;5.258;2022-09-09T05:13:16;7.15;;;3.78;;
72478;SDS011;60658;52.246;5.258;2022-09-09T05:14:17;7.35;;;3.63;;
72478;SDS011;60658;52.246;5.258;2022-09-09T05:15:17;8.55;;;4.18;;
72478;SDS011;60658;52.246;5.258;2022-09-09T05:16:18;12.57;;;4.15;;
72478;SDS011;60658;52.246;5.258;2022-09-09T05:17:20;7.43;;;3.80;;
72478;SDS011;60658;52.246;5.258;2022-09-09T05:18:21;7.90;;;3.55;;
72478;SDS011;60658;52.246;5.258;2022-09-09T05:19:22;7.20;;;3.47;;
72478;SDS011;60658;52.246;5.258;2022-09-09T05:20:22;5.53;;;3.53;;
72478;SDS011;60658;52.246;5.258;2022-09-09T05:21:23;7.15;;;3.72;;
72478;SDS011;60658;52.246;5.258;2022-09-09T05:22:24;7.45;;;3.95;;
72478;SDS011;60658;52.246;5.258;2022-09-09T05:23:25;8.27;;;3.38;;
72478;SDS011;60658;52.246;5.258;2022-09-09T05:24:25;8.32;;;4.00;;
72478;SDS011;60658;52.246;5.258;2022-09-09T05:25:26;7.13;;;3.75;;
72478;SDS011;60658;52.246;5.258;2022-09-09T05:26:26;7.53;;;3.97;;
72478;SDS011;60658;52.246;5.258;2022-09-09T05:27:27;7.85;;;3.58;;
72478;SDS011;60658;52.246;5.258;2022-09-09T05:28:28;6.88;;;3.95;;
72478;SDS011;60658;52.246;5.258;2022-09-09T05:29:28;5.70;;;3.28;;
72478;SDS011;60658;52.246;5.258;2022-09-09T05:30:29;9.10;;;4.00;;
72478;SDS011;60658;52.246;5.258;2022-09-09T05:31:30;7.78;;;3.70;;
72478;SDS011;60658;52.246;5.258;2022-09-09T05:32:32;9.75;;;3.80;;
72478;SDS011;60658;52.246;5.258;2022-09-09T05:33:33;8.05;;;4.00;;
72478;SDS011;60658;52.246;5.258;2022-09-09T05:34:34;6.47;;;3.42;;
72478;SDS011;60658;52.246;5.258;2022-09-09T05:35:34;7.68;;;3.40;;
72478;SDS011;60658;52.246;5.258;2022-09-09T05:36:35;7.82;;;3.10;;
72478;SDS011;60658;52.246;5.258;2022-09-09T05:37:36;6.88;;;3.38;;
72478;SDS011;60658;52.246;5.258;2022-09-09T05:38:37;8.50;;;3.53;;
72478;SDS011;60658;52.246;5.258;2022-09-09T05:39:37;6.05;;;3.40;;
72478;SDS011;60658;52.246;5.258;2022-09-09T05:40:38;9.18;;;4.38;;
72478;SDS011;60658;52.246;5.258;2022-09-09T05:41:38;10.65;;;4.32;;
72478;SDS011;60658;52.246;5.258;2022-09-09T05:42:39;8.93;;;3.90;;
72478;SDS011;60658;52.246;5.258;2022-09-09T05:43:40;9.13;;;3.65;;
72478;SDS011;60658;52.246;5.258;2022-09-09T05:44:40;9.93;;;3.53;;
72478;SDS011;60658;52.246;5.258;2022-09-09T05:45:41;9.90;;;3.60;;
72478;SDS011;60658;52.246;5.258;2022-09-09T05:46:42;6.50;;;3.80;;
72478;SDS011;60658;52.246;5.258;2022-09-09T05:47:44;8.07;;;3.67;;
72478;SDS011;60658;52.246;5.258;2022-09-09T05:48:45;6.70;;;3.50;;
72478;SDS011;60658;52.246;5.258;2022-09-09T05:49:46;8.07;;;3.78;;
72478;SDS011;60658;52.246;5.258;2022-09-09T05:50:52;7.63;;;3.80;;
72478;SDS011;60658;52.246;5.258;2022-09-09T05:51:53;12.15;;;4.43;;
72478;SDS011;60658;52.246;5.258;2022-09-09T05:52:54;8.07;;;3.83;;
72478;SDS011;60658;52.246;5.258;2022-09-09T05:53:54;8.52;;;4.40;;
72478;SDS011;60658;52.246;5.258;2022-09-09T05:54:55;10.77;;;4.45;;
72478;SDS011;60658;52.246;5.258;2022-09-09T05:55:59;8.55;;;4.13;;
72478;SDS011;60658;52.246;5.258;2022-09-09T05:57:00;9.02;;;3.80;;
72478;SDS011;60658;52.246;5.258;2022-09-09T05:58:01;8.60;;;3.50;;
72478;SDS011;60658;52.246;5.258;2022-09-09T05:59:01;11.15;;;3.90;;
72478;SDS011;60658;52.246;5.258;2022-09-09T06:00:02;8.30;;;4.30;;
72478;SDS011;60658;52.246;5.258;2022-09-09T06:01:03;9.15;;;4.03;;
72478;SDS011;60658;52.246;5.258;2022-09-09T06:02:04;7.85;;;3.53;;
72478;SDS011;60658;52.246;5.258;2022-09-09T06:03:08;6.22;;;3.30;;
72478;SDS011;60658;52.246;5.258;2022-09-09T06:05:10;8.15;;;3.50;;
72478;SDS011;60658;52.246;5.258;2022-09-09T06:06:11;7.75;;;4.03;;
72478;SDS011;60658;52.246;5.258;2022-09-09T06:07:12;6.93;;;3.72;;
72478;SDS011;60658;52.246;5.258;2022-09-09T06:08:12;7.80;;;4.10;;
72478;SDS011;60658;52.246;5.258;2022-09-09T06:09:13;8.18;;;3.63;;
72478;SDS011;60658;52.246;5.258;2022-09-09T06:10:14;8.65;;;3.85;;
72478;SDS011;60658;52.246;5.258;2022-09-09T06:11:15;8.10;;;3.53;;
72478;SDS011;60658;52.246;5.258;2022-09-09T06:12:18;8.90;;;3.45;;
72478;SDS011;60658;52.246;5.258;2022-09-09T06:13:19;9.50;;;4.07;;
72478;SDS011;60658;52.246;5.258;2022-09-09T06:14:19;6.07;;;3.42;;
72478;SDS011;60658;52.246;5.258;2022-09-09T06:15:20;6.90;;;3.78;;
72478;SDS011;60658;52.246;5.258;2022-09-09T06:16:21;10.60;;;3.47;;
72478;SDS011;60658;52.246;5.258;2022-09-09T06:17:22;8.43;;;3.80;;
72478;SDS011;60658;52.246;5.258;2022-09-09T06:18:24;7.13;;;3.60;;
72478;SDS011;60658;52.246;5.258;2022-09-09T06:19:25;10.05;;;3.83;;
72478;SDS011;60658;52.246;5.258;2022-09-09T06:20:25;8.45;;;3.80;;